createdAt,value
2022-10-07T00:05:02.353Z,6
2022-10-07T00:10:08.474Z,5.9
2022-10-07T00:15:14.570Z,5.9
2022-10-07T00:20:20.658Z,5.9
2022-10-07T00:25:25.773Z,5.9
2022-10-07T00:30:30.886Z,5.9
2022-10-07T00:35:36.995Z,5.8
2022-10-07T00:40:42.107Z,5.8
2022-10-07T00:45:47.231Z,5.8
2022-10-07T00:50:53.323Z,5.7
2022-10-07T00:55:59.485Z,5.7
2022-10-07T01:01:05.516Z,5.7
2022-10-07T01:06:11.620Z,5.6
2022-10-07T01:11:17.731Z,5.5
2022-10-07T01:16:23.805Z,5.4
2022-10-07T01:21:29.927Z,5.4
2022-10-07T01:26:36.009Z,5.4
2022-10-07T01:31:42.107Z,5.3
2022-10-07T01:36:48.214Z,5.3
2022-10-07T01:41:54.319Z,5.3
2022-10-07T01:47:00.419Z,5.2
2022-10-07T01:52:05.532Z,5.1
2022-10-07T01:57:11.608Z,5.1
2022-10-07T02:02:17.714Z,5.1
2022-10-07T02:07:23.814Z,5.1
2022-10-07T02:12:29.917Z,5.1
2022-10-07T02:17:36.017Z,5.2
2022-10-07T02:22:42.127Z,5.2
2022-10-07T02:27:47.230Z,5.1
2022-10-07T02:32:52.341Z,5.2
2022-10-07T02:37:58.441Z,5.2
2022-10-07T02:43:04.548Z,5.1
2022-10-07T02:48:09.655Z,5.1
2022-10-07T02:53:14.771Z,5.1
2022-10-07T02:58:20.870Z,5
2022-10-07T03:03:26.983Z,5
2022-10-07T03:08:33.070Z,4.9
2022-10-07T03:13:39.149Z,4.9
2022-10-07T03:18:45.262Z,4.9
2022-10-07T03:23:51.374Z,4.8
2022-10-07T03:28:57.463Z,4.8
2022-10-07T03:34:03.554Z,4.8
2022-10-07T03:39:09.659Z,4.8
2022-10-07T03:44:15.750Z,4.9
2022-10-07T03:49:21.856Z,5
2022-10-07T03:54:27.938Z,4.9
2022-10-07T03:59:33.051Z,4.9
2022-10-07T04:04:39.174Z,4.9
2022-10-07T04:09:45.260Z,4.9
2022-10-07T04:14:51.360Z,4.9
2022-10-07T04:19:57.458Z,4.9
2022-10-07T04:25:03.549Z,4.8
2022-10-07T04:30:09.660Z,4.7
2022-10-07T04:35:14.777Z,4.5
2022-10-07T04:40:19.887Z,4.5
2022-10-07T04:45:25.983Z,4.5
2022-10-07T04:50:32.073Z,4.4
2022-10-07T04:55:38.172Z,4.4
2022-10-07T05:00:44.273Z,4.4
2022-10-07T05:05:50.382Z,4.3
2022-10-07T05:10:56.487Z,4.3
2022-10-07T05:16:02.572Z,4.4
2022-10-07T05:21:08.678Z,4.4
2022-10-07T05:26:14.776Z,4.3
2022-10-07T05:31:20.869Z,4.3
2022-10-07T05:36:26.991Z,4.2
2022-10-07T05:41:33.069Z,4.2
2022-10-07T05:46:38.176Z,4.2
2022-10-07T05:51:44.280Z,4.3
2022-10-07T05:56:50.388Z,4.3
2022-10-07T06:01:56.484Z,4.5
2022-10-07T06:07:02.582Z,4.7
2022-10-07T06:12:08.687Z,4.9
2022-10-07T06:17:14.767Z,5.2
2022-10-07T06:22:19.892Z,5.5
2022-10-07T06:27:25.005Z,5.6
2022-10-07T06:32:30.133Z,5.8
2022-10-07T06:37:35.366Z,5.9
2022-10-07T06:42:41.332Z,6.1
2022-10-07T06:47:46.618Z,6.2
2022-10-07T06:52:51.568Z,6.5
2022-10-07T06:57:57.687Z,6.7
2022-10-07T07:03:03.770Z,6.8
2022-10-07T07:08:09.862Z,7
2022-10-07T07:13:15.973Z,7.2
2022-10-07T07:18:22.064Z,7.4
2022-10-07T07:23:28.156Z,7.6
2022-10-07T07:28:34.277Z,8
2022-10-07T07:33:40.362Z,8.8
2022-10-07T07:38:46.470Z,9.5
2022-10-07T07:43:52.558Z,10
2022-10-07T07:48:58.638Z,10.7
2022-10-07T07:54:04.731Z,11.6
2022-10-07T07:59:09.852Z,12.4
2022-10-07T08:04:15.961Z,13.1
2022-10-07T08:09:22.044Z,13.8
2022-10-07T08:14:28.139Z,14.3
2022-10-07T08:19:34.300Z,14.6
2022-10-07T08:24:40.374Z,15.2
2022-10-07T08:29:46.434Z,15.9
2022-10-07T08:34:51.560Z,16.1
2022-10-07T08:39:56.659Z,16.2
2022-10-07T08:45:02.758Z,16.7
2022-10-07T08:50:08.854Z,17.2
2022-10-07T08:55:15.045Z,18
2022-10-07T09:00:21.047Z,18.8
2022-10-07T09:05:27.137Z,19.3
2022-10-07T09:10:33.226Z,19.7
2022-10-07T09:15:39.326Z,21.1
2022-10-07T09:20:45.422Z,21.7
2022-10-07T09:25:51.524Z,21.7
2022-10-07T09:30:57.616Z,22
2022-10-07T09:36:03.737Z,23.3
2022-10-07T09:41:09.814Z,23.9
2022-10-07T09:46:14.921Z,24.2
2022-10-07T09:51:21.010Z,25
2022-10-07T09:56:27.112Z,24.7
2022-10-07T10:01:33.252Z,25.4
2022-10-07T10:06:39.294Z,25.8
2022-10-07T10:11:45.443Z,25.8
2022-10-07T10:16:51.500Z,26.6
2022-10-07T10:21:56.602Z,26.8
2022-10-07T10:27:01.725Z,27.1
2022-10-07T10:32:06.860Z,27.2
2022-10-07T10:37:11.944Z,26.8
2022-10-07T10:42:17.108Z,27.7
2022-10-07T10:47:22.204Z,27.3
2022-10-07T10:52:28.278Z,26.9
2022-10-07T10:57:34.367Z,26.8
2022-10-07T11:02:39.489Z,22.6
2022-10-07T11:07:45.597Z,21
2022-10-07T11:12:51.674Z,19.8
2022-10-07T11:17:57.774Z,19.3
2022-10-07T11:23:03.860Z,19.1
2022-10-07T11:28:09.957Z,19
2022-10-07T11:33:16.055Z,18.8
2022-10-07T11:38:22.174Z,18.6
2022-10-07T11:43:28.262Z,18.6
2022-10-07T11:48:34.348Z,18.7
2022-10-07T11:53:40.437Z,18.8
2022-10-07T11:58:46.536Z,18.9
2022-10-07T12:03:52.648Z,18.8
2022-10-07T12:08:57.750Z,18.8
2022-10-07T12:14:03.849Z,18.7
2022-10-07T12:19:09.933Z,18.7
2022-10-07T12:24:16.034Z,18.9
2022-10-07T12:29:21.164Z,18.9
2022-10-07T12:34:26.250Z,19
2022-10-07T12:39:31.374Z,19.2
2022-10-07T12:44:36.483Z,19.1
2022-10-07T12:49:41.596Z,19.2
2022-10-07T12:54:46.718Z,19.1
2022-10-07T12:59:52.803Z,19.2
2022-10-07T13:04:58.909Z,19.3
2022-10-07T13:10:04.995Z,19.4
2022-10-07T13:15:11.084Z,19.9
2022-10-07T13:20:17.190Z,20.1
2022-10-07T13:25:23.287Z,21.2
2022-10-07T13:30:29.374Z,20.7
2022-10-07T13:35:35.477Z,20
2022-10-07T13:40:41.577Z,19.7
2022-10-07T13:45:47.661Z,19.5
2022-10-07T13:50:53.751Z,19.4
2022-10-07T13:55:59.845Z,19.3
2022-10-07T14:01:04.971Z,19.3
2022-10-07T14:06:11.055Z,19.3
2022-10-07T14:11:17.148Z,19.2
2022-10-07T14:16:23.249Z,19.3
2022-10-07T14:21:29.364Z,19.3
2022-10-07T14:26:35.433Z,19.4
2022-10-07T14:31:41.585Z,19.5
2022-10-07T14:36:46.680Z,20.2
2022-10-07T14:41:51.770Z,20.5
2022-10-07T14:46:57.850Z,22
2022-10-07T14:52:03.948Z,24
2022-10-07T14:57:10.038Z,23.9
2022-10-07T15:02:16.145Z,23.4
2022-10-07T15:07:22.261Z,21.2
2022-10-07T15:12:28.340Z,19.9
2022-10-07T15:17:34.438Z,19.2
2022-10-07T15:22:40.593Z,18.9
2022-10-07T15:27:46.634Z,18.8
2022-10-07T15:32:52.717Z,18.7
2022-10-07T15:37:58.811Z,18.6
2022-10-07T15:43:04.927Z,18.5
2022-10-07T15:48:10.031Z,18.3
2022-10-07T15:53:16.110Z,18.2
2022-10-07T15:58:22.215Z,17.9
2022-10-07T16:03:28.301Z,17.6
2022-10-07T16:08:34.409Z,17.3
2022-10-07T16:13:40.490Z,17
2022-10-07T16:18:46.576Z,16.7
2022-10-07T16:23:51.713Z,16.3
2022-10-07T16:28:56.881Z,15.9
2022-10-07T16:34:01.937Z,15.5
2022-10-07T16:39:07.082Z,15.1
2022-10-07T16:44:13.153Z,14.7
2022-10-07T16:49:19.257Z,14.4
2022-10-07T16:54:25.364Z,14.1
2022-10-07T16:59:31.467Z,13.9
2022-10-07T17:04:37.529Z,13.8
2022-10-07T17:09:43.657Z,13.5
2022-10-07T17:14:49.765Z,13.4
2022-10-07T17:19:55.844Z,13.3
2022-10-07T17:25:01.966Z,13.1
2022-10-07T17:30:08.016Z,13
2022-10-07T17:35:14.154Z,12.9
2022-10-07T17:40:20.219Z,12.6
2022-10-07T17:45:25.329Z,12.7
2022-10-07T17:50:31.408Z,12.6
2022-10-07T17:55:37.602Z,12.4
2022-10-07T18:00:43.646Z,12.2
2022-10-07T18:05:49.709Z,12.1
2022-10-07T18:10:55.804Z,11.9
2022-10-07T18:16:01.916Z,11.7
2022-10-07T18:21:07.030Z,11.6
2022-10-07T18:26:12.136Z,11.5
2022-10-07T18:31:17.289Z,11.4
2022-10-07T18:36:22.362Z,11.3
2022-10-07T18:41:27.469Z,11.2
2022-10-07T18:46:32.580Z,11.1
2022-10-07T18:51:38.686Z,10.9
2022-10-07T18:56:44.843Z,10.8
2022-10-07T19:01:50.890Z,10.7
2022-10-07T19:06:56.981Z,10.6
2022-10-07T19:12:03.159Z,10.7
2022-10-07T19:17:09.243Z,10.8
2022-10-07T19:22:15.274Z,11.1
2022-10-07T19:27:21.374Z,11.6
2022-10-07T19:32:27.489Z,12.1
2022-10-07T19:37:33.621Z,12.4
2022-10-07T19:42:39.665Z,12.5
2022-10-07T19:47:45.757Z,12.6
2022-10-07T19:52:50.881Z,12.7
2022-10-07T19:57:57.053Z,12.6
2022-10-07T20:03:03.096Z,12.4
2022-10-07T20:08:09.160Z,12.4
2022-10-07T20:13:15.267Z,12.5
2022-10-07T20:18:21.353Z,12.6
2022-10-07T20:23:27.457Z,12.7
2022-10-07T20:28:32.623Z,12.8
2022-10-07T20:33:37.688Z,12.9
2022-10-07T20:38:42.797Z,13
2022-10-07T20:43:47.906Z,12.9
2022-10-07T20:48:54.003Z,12.9
2022-10-07T20:54:00.093Z,13
2022-10-07T20:59:06.210Z,13
2022-10-07T21:04:12.294Z,13
2022-10-07T21:09:18.391Z,12.9
2022-10-07T21:14:24.478Z,12.8
2022-10-07T21:19:30.583Z,12.8
2022-10-07T21:24:36.707Z,12.7
2022-10-07T21:29:42.781Z,12.7
2022-10-07T21:34:48.867Z,12.7
2022-10-07T21:39:55.001Z,12.4
2022-10-07T21:45:01.115Z,12.2
2022-10-07T21:50:06.172Z,12
2022-10-07T21:55:12.298Z,11.9
2022-10-07T22:00:18.374Z,11.8
2022-10-07T22:05:24.466Z,11.8
2022-10-07T22:10:30.557Z,11.8
2022-10-07T22:15:36.662Z,11.8
2022-10-07T22:20:42.757Z,11.8
2022-10-07T22:25:47.882Z,11.8
2022-10-07T22:30:52.988Z,11.7
2022-10-07T22:35:59.078Z,11.7
2022-10-07T22:41:05.171Z,11.6
2022-10-07T22:46:11.280Z,11.5
2022-10-07T22:51:17.382Z,11.4
2022-10-07T22:56:23.474Z,11.3
2022-10-07T23:01:29.566Z,11.1
2022-10-07T23:06:35.669Z,11.1
2022-10-07T23:11:41.753Z,10.9
2022-10-07T23:16:47.859Z,10.9
2022-10-07T23:21:53.941Z,10.8
2022-10-07T23:27:00.053Z,10.9
2022-10-07T23:32:06.145Z,10.9
2022-10-07T23:37:11.256Z,10.9
2022-10-07T23:42:17.344Z,11
2022-10-07T23:47:23.442Z,11.1
2022-10-07T23:52:29.541Z,11.2
2022-10-07T23:57:35.632Z,11.2
